createdAt,value
2023-01-13T00:01:13.060Z,94940.59
2023-01-13T00:03:42.760Z,94945.78
2023-01-13T00:06:13.784Z,94911.50
2023-01-13T00:08:41.530Z,94951.50
2023-01-13T00:11:09.164Z,94934.13
2023-01-13T00:13:38.520Z,94935.94
2023-01-13T00:16:11.123Z,94919.31
2023-01-13T00:18:39.078Z,94934.38
2023-01-13T00:21:12.714Z,94904.22
2023-01-13T00:23:41.374Z,94882.41
2023-01-13T00:26:11.529Z,94922.69
2023-01-13T00:28:39.306Z,94901.13
2023-01-13T00:31:08.599Z,94912.03
2023-01-13T00:33:36.353Z,94915.94
2023-01-13T00:36:05.588Z,94912.31
2023-01-13T00:38:36.287Z,94921.66
2023-01-13T00:41:05.892Z,94919.81
2023-01-13T00:43:33.854Z,94923.75
2023-01-13T00:46:02.117Z,94917.50
2023-01-13T00:48:31.257Z,94907.88
2023-01-13T00:51:00.509Z,94895.16
2023-01-13T00:53:28.993Z,94916.72
2023-01-13T00:56:01.840Z,94902.44
2023-01-13T00:58:32.849Z,94898.78
2023-01-13T01:01:01.769Z,94886.03
2023-01-13T01:03:30.098Z,94890.22
2023-01-13T01:05:57.897Z,94898.81
2023-01-13T01:08:25.506Z,94891.53
2023-01-13T01:11:03.141Z,94902.44
2023-01-13T01:13:31.024Z,94886.56
2023-01-13T01:15:58.787Z,94904.75
2023-01-13T01:18:27.043Z,94888.41
2023-01-13T01:20:54.644Z,94879.81
2023-01-13T01:23:22.289Z,94892.03
2023-01-13T01:25:50.020Z,94914.91
2023-01-13T01:28:20.687Z,94919.53
2023-01-13T01:30:48.501Z,94929.88
2023-01-13T01:33:16.892Z,94930.31
2023-01-13T01:35:44.592Z,94923.94
2023-01-13T01:38:12.445Z,94956.28
2023-01-13T01:40:40.319Z,94876.88
2023-01-13T01:43:33.201Z,94955.81
2023-01-13T01:46:02.760Z,94926.63
2023-01-13T01:48:33.764Z,94926.38
2023-01-13T01:51:02.039Z,94953.31
2023-01-13T01:53:31.940Z,94949.94
2023-01-13T01:56:01.625Z,94956.84
2023-01-13T01:58:33.261Z,94948.50
2023-01-13T02:01:02.685Z,94932.56
2023-01-13T02:03:31.363Z,94950.47
2023-01-13T02:05:59.187Z,94943.25
2023-01-13T02:08:27.099Z,94959.56
2023-01-13T02:10:55.374Z,94962.13
2023-01-13T02:13:24.098Z,94946.81
2023-01-13T02:15:58.683Z,94946.75
2023-01-13T02:18:44.544Z,94967.69
2023-01-13T02:21:41.842Z,94933.47
2023-01-13T02:24:57.607Z,94927.53
2023-01-13T02:27:40.122Z,94943.63
2023-01-13T02:30:36.597Z,94933.09
2023-01-13T02:33:15.486Z,94940.94
2023-01-13T02:35:51.717Z,94929.47
2023-01-13T02:38:24.019Z,94932.56
2023-01-13T02:40:58.555Z,94924.97
2023-01-13T02:43:51.006Z,94933.22
2023-01-13T02:46:25.036Z,94915.97
2023-01-13T02:48:55.240Z,94923.50
2023-01-13T02:51:27.945Z,94892.31
2023-01-13T02:54:01.728Z,94924.88
2023-01-13T02:56:31.504Z,94935.25
2023-01-13T02:59:01.221Z,94925.63
2023-01-13T03:01:30.405Z,94926.47
2023-01-13T03:03:57.929Z,94936.28
2023-01-13T03:06:48.737Z,94925.22
2023-01-13T03:09:20.647Z,94914.09
2023-01-13T03:11:59.607Z,94894.22
2023-01-13T03:14:36.815Z,94934.25
2023-01-13T03:17:15.818Z,94913.56
2023-01-13T03:19:47.608Z,94897.22
2023-01-13T03:22:22.653Z,94896.81
2023-01-13T03:24:54.214Z,94928.19
2023-01-13T03:27:28.040Z,94918.34
2023-01-13T03:30:00.067Z,94927.72
2023-01-13T03:32:33.390Z,94925.34
2023-01-13T03:35:08.513Z,94934.13
2023-01-13T03:37:40.327Z,94928.00
2023-01-13T03:40:14.210Z,94933.16
2023-01-13T03:43:05.992Z,94904.72
2023-01-13T03:45:35.897Z,94872.31
2023-01-13T03:48:09.699Z,94878.41
2023-01-13T03:50:42.537Z,94897.53
2023-01-13T03:53:15.084Z,94891.47
2023-01-13T03:55:48.393Z,94899.47
2023-01-13T03:58:20.804Z,94903.63
2023-01-13T04:00:53.818Z,94883.09
2023-01-13T04:03:28.002Z,94894.47
2023-01-13T04:06:03.677Z,94902.44
2023-01-13T04:08:31.792Z,94890.66
2023-01-13T04:11:04.537Z,94902.03
2023-01-13T04:13:37.744Z,94916.69
2023-01-13T04:16:07.459Z,94922.25
2023-01-13T04:18:39.040Z,94902.53
2023-01-13T04:21:07.941Z,94921.50
2023-01-13T04:23:35.759Z,94919.69
2023-01-13T04:26:04.158Z,94893.06
2023-01-13T04:28:33.175Z,94901.72
2023-01-13T04:31:00.694Z,94874.53
2023-01-13T04:33:28.239Z,94908.59
2023-01-13T04:35:57.259Z,94912.28
2023-01-13T04:38:24.965Z,94907.44
2023-01-13T04:40:52.508Z,94908.13
2023-01-13T04:43:19.991Z,94898.41
2023-01-13T04:45:47.538Z,94911.56
2023-01-13T04:48:15.047Z,94912.66
2023-01-13T04:50:42.884Z,94915.94
2023-01-13T04:53:11.955Z,94889.38
2023-01-13T04:55:39.620Z,94889.28
2023-01-13T04:58:08.875Z,94906.09
2023-01-13T05:00:37.314Z,94864.50
2023-01-13T05:03:05.410Z,94901.72
2023-01-13T05:05:33.107Z,94846.25
2023-01-13T05:08:00.616Z,94881.47
2023-01-13T05:10:29.616Z,94888.38
2023-01-13T05:13:15.337Z,94841.72
2023-01-13T05:16:00.996Z,94879.63
2023-01-13T05:18:30.614Z,94870.72
2023-01-13T05:20:58.124Z,94867.94
2023-01-13T05:23:43.133Z,94889.16
2023-01-13T05:26:11.966Z,94867.00
2023-01-13T05:28:39.416Z,94874.06
2023-01-13T05:31:07.236Z,94852.16
2023-01-13T05:33:35.814Z,94854.53
2023-01-13T05:36:04.349Z,94850.34
2023-01-13T05:38:31.789Z,94857.88
2023-01-13T05:41:18.106Z,94846.03
2023-01-13T05:43:46.930Z,94852.44
2023-01-13T05:46:14.855Z,94900.69
2023-01-13T05:48:43.737Z,94903.28
2023-01-13T05:51:13.072Z,94890.97
2023-01-13T05:53:41.505Z,94887.19
2023-01-13T05:56:10.143Z,94915.06
2023-01-13T05:58:37.950Z,94899.78
2023-01-13T06:01:09.250Z,94919.56
2023-01-13T06:03:37.151Z,94918.31
2023-01-13T06:06:05.191Z,94917.78
2023-01-13T06:08:33.044Z,94918.81
2023-01-13T06:11:00.511Z,94887.78
2023-01-13T06:13:28.272Z,94912.22
2023-01-13T06:15:57.555Z,94916.41
2023-01-13T06:18:26.911Z,94919.31
2023-01-13T06:20:54.420Z,94921.63
2023-01-13T06:23:21.920Z,94922.78
2023-01-13T06:25:56.531Z,94917.09
2023-01-13T06:28:24.055Z,94922.78
2023-01-13T06:30:56.475Z,94919.94
2023-01-13T06:33:29.039Z,94919.47
2023-01-13T06:36:02.538Z,94913.16
2023-01-13T06:38:35.109Z,94922.22
2023-01-13T06:41:02.820Z,94932.88
2023-01-13T06:43:29.391Z,94942.38
2023-01-13T06:45:57.608Z,94924.88
2023-01-13T06:48:32.804Z,94927.19
2023-01-13T06:51:00.314Z,94938.28
2023-01-13T06:53:27.958Z,94943.41
2023-01-13T06:55:55.382Z,94905.19
2023-01-13T06:58:22.826Z,94902.44
2023-01-13T07:00:51.278Z,94935.25
2023-01-13T07:03:19.770Z,94954.66
2023-01-13T07:05:54.401Z,94937.22
2023-01-13T07:08:22.369Z,94937.16
2023-01-13T07:10:49.848Z,94985.91
2023-01-13T07:13:35.187Z,94985.22
2023-01-13T07:16:07.079Z,94975.34
2023-01-13T07:18:36.341Z,94977.69
2023-01-13T07:21:06.997Z,94997.59
2023-01-13T07:23:36.064Z,94989.31
2023-01-13T07:26:04.062Z,94985.44
2023-01-13T07:28:32.469Z,94992.91
2023-01-13T07:31:00.342Z,94989.31
2023-01-13T07:33:28.498Z,95009.19
2023-01-13T07:36:00.296Z,95008.66
2023-01-13T07:38:29.402Z,95005.19
2023-01-13T07:40:56.843Z,95036.44
2023-01-13T07:43:32.490Z,95034.81
2023-01-13T07:46:00.737Z,95030.84
2023-01-13T07:48:28.754Z,95062.56
2023-01-13T07:50:56.830Z,95032.16
2023-01-13T07:53:25.899Z,95052.91
2023-01-13T07:55:57.815Z,95031.59
2023-01-13T07:58:25.776Z,95034.91
2023-01-13T08:00:54.349Z,95050.50
2023-01-13T08:03:22.445Z,95059.75
2023-01-13T08:05:49.985Z,95047.03
2023-01-13T08:08:17.708Z,95055.25
2023-01-13T08:10:45.399Z,95059.47
2023-01-13T08:13:21.039Z,95035.69
2023-01-13T08:15:50.267Z,95054.03
2023-01-13T08:18:20.690Z,95063.00
2023-01-13T08:20:48.489Z,95048.44
2023-01-13T08:23:16.100Z,95059.25
2023-01-13T08:25:43.628Z,95037.34
2023-01-13T08:28:11.187Z,95046.63
2023-01-13T08:30:40.328Z,95065.06
2023-01-13T08:33:09.228Z,95073.34
2023-01-13T08:35:37.134Z,95069.28
2023-01-13T08:38:05.266Z,95053.44
2023-01-13T08:40:33.563Z,95064.63
2023-01-13T08:43:01.448Z,95061.44
2023-01-13T08:45:28.948Z,95076.69
2023-01-13T08:47:57.875Z,95093.00
2023-01-13T08:50:25.499Z,95088.50
2023-01-13T08:52:53.064Z,95098.22
2023-01-13T08:55:20.643Z,95096.91
2023-01-13T08:57:48.081Z,95106.06
2023-01-13T09:00:16.943Z,95090.88
2023-01-13T09:02:44.661Z,95096.59
2023-01-13T09:05:13.532Z,95089.03
2023-01-13T09:07:41.026Z,95121.16
2023-01-13T09:10:10.467Z,95139.25
2023-01-13T09:12:55.492Z,95075.91
2023-01-13T09:15:23.103Z,95115.19
2023-01-13T09:17:50.542Z,95130.22
2023-01-13T09:20:19.729Z,95123.63
2023-01-13T09:22:47.178Z,95149.09
2023-01-13T09:25:14.633Z,95141.31
2023-01-13T09:27:42.157Z,95115.94
2023-01-13T09:30:10.801Z,95147.44
2023-01-13T09:32:39.288Z,95142.94
2023-01-13T09:35:07.565Z,95134.63
2023-01-13T09:37:38.243Z,95124.91
2023-01-13T09:40:07.847Z,95129.88
2023-01-13T09:43:02.213Z,95138.25
2023-01-13T09:45:34.308Z,95149.09
2023-01-13T09:48:11.015Z,95152.69
2023-01-13T09:50:57.453Z,95139.47
2023-01-13T09:53:31.311Z,95153.81
2023-01-13T09:55:58.931Z,95154.66
2023-01-13T09:58:26.463Z,95151.03
2023-01-13T10:01:04.042Z,95130.28
2023-01-13T10:03:33.410Z,95113.59
2023-01-13T10:06:07.119Z,95136.31
2023-01-13T10:08:39.496Z,95143.63
2023-01-13T10:11:27.929Z,95148.91
2023-01-13T10:13:59.714Z,95141.94
2023-01-13T10:16:36.571Z,95139.84
2023-01-13T10:19:07.421Z,95139.53
2023-01-13T10:22:10.161Z,95131.00
2023-01-13T10:24:59.081Z,95151.69
2023-01-13T10:27:34.371Z,95147.06
2023-01-13T10:30:12.355Z,95161.72
2023-01-13T10:32:43.920Z,95158.63
2023-01-13T10:35:11.369Z,95157.38
2023-01-13T10:37:38.841Z,95159.94
2023-01-13T10:40:19.084Z,95144.78
2023-01-13T10:42:46.562Z,95159.94
2023-01-13T10:45:25.170Z,95164.34
2023-01-13T10:48:08.272Z,95170.13
2023-01-13T10:50:37.641Z,95164.34
2023-01-13T10:53:18.766Z,95176.59
2023-01-13T10:55:59.868Z,95145.13
2023-01-13T10:58:27.737Z,95161.75
2023-01-13T11:01:03.184Z,95150.69
2023-01-13T11:03:40.387Z,95154.09
2023-01-13T11:06:08.536Z,95163.44
2023-01-13T11:08:45.016Z,95147.69
2023-01-13T11:11:39.944Z,95150.34
2023-01-13T11:14:36.623Z,95155.75
2023-01-13T11:17:11.592Z,95160.72
2023-01-13T11:19:44.599Z,95139.59
2023-01-13T11:22:17.954Z,95153.88
2023-01-13T11:24:51.101Z,95149.22
2023-01-13T11:27:26.748Z,95106.34
2023-01-13T11:30:09.450Z,95146.09
2023-01-13T11:32:45.044Z,95155.84
2023-01-13T11:35:19.104Z,95161.66
2023-01-13T11:37:53.650Z,95156.56
2023-01-13T11:40:28.338Z,95193.53
2023-01-13T11:43:02.746Z,95181.41
2023-01-13T11:45:38.149Z,95185.38
2023-01-13T11:48:06.445Z,95168.00
2023-01-13T11:50:42.037Z,95166.34
2023-01-13T11:53:31.113Z,95173.66
2023-01-13T11:56:14.293Z,95171.81
2023-01-13T11:59:03.805Z,95177.53
2023-01-13T12:01:49.073Z,95174.06
2023-01-13T12:04:27.581Z,95168.41
2023-01-13T12:07:12.634Z,95171.88
2023-01-13T12:09:51.436Z,95155.19
2023-01-13T12:12:33.697Z,95136.31
2023-01-13T12:15:43.509Z,95153.13
2023-01-13T12:18:34.349Z,95139.34
2023-01-13T12:21:14.559Z,95159.22
2023-01-13T12:23:47.888Z,95142.66
2023-01-13T12:26:17.721Z,95150.78
2023-01-13T12:28:50.135Z,95157.59
2023-01-13T12:31:20.146Z,95143.28
2023-01-13T12:34:03.334Z,95156.56
2023-01-13T12:36:41.175Z,95144.91
2023-01-13T12:39:20.172Z,95111.72
2023-01-13T12:42:10.843Z,95169.41
2023-01-13T12:44:38.504Z,95145.69
2023-01-13T12:47:37.943Z,95131.22
2023-01-13T12:50:37.408Z,95148.81
2023-01-13T12:53:33.576Z,95163.03
2023-01-13T12:56:26.252Z,95167.78
2023-01-13T12:58:53.803Z,95149.88
2023-01-13T13:01:36.321Z,95162.66
2023-01-13T13:04:13.200Z,95155.38
2023-01-13T13:06:44.550Z,95177.47
2023-01-13T13:09:20.813Z,95169.63
2023-01-13T13:12:07.244Z,95137.69
2023-01-13T13:15:04.473Z,95180.88
2023-01-13T13:17:43.196Z,95198.72
2023-01-13T13:20:44.129Z,95197.09
2023-01-13T13:23:47.803Z,95184.81
2023-01-13T13:26:30.872Z,95187.75
2023-01-13T13:29:14.252Z,95171.97
2023-01-13T13:32:02.244Z,95198.44
2023-01-13T13:34:34.565Z,95190.66
2023-01-13T13:37:21.499Z,95198.78
2023-01-13T13:40:06.550Z,95207.31
2023-01-13T13:43:00.613Z,95201.25
2023-01-13T13:45:45.880Z,95204.63
2023-01-13T13:48:20.103Z,95212.75
2023-01-13T13:50:48.987Z,95206.56
2023-01-13T13:53:18.873Z,95206.22
2023-01-13T13:55:55.155Z,95220.94
2023-01-13T13:58:26.132Z,95219.16
2023-01-13T14:00:54.720Z,95214.91
2023-01-13T14:03:26.465Z,95218.28
2023-01-13T14:05:56.970Z,95236.66
2023-01-13T14:08:25.449Z,95233.13
2023-01-13T14:10:52.931Z,95236.84
2023-01-13T14:13:24.833Z,95250.72
2023-01-13T14:15:59.538Z,95246.69
2023-01-13T14:18:29.220Z,95273.84
2023-01-13T14:21:00.966Z,95268.66
2023-01-13T14:23:31.157Z,95256.41
2023-01-13T14:26:03.570Z,95234.16
2023-01-13T14:28:34.890Z,95255.97
2023-01-13T14:31:05.133Z,95260.34
2023-01-13T14:33:38.923Z,95268.41
2023-01-13T14:36:20.148Z,95289.34
2023-01-13T14:38:49.765Z,95272.56
2023-01-13T14:41:21.518Z,95273.59
2023-01-13T14:43:50.721Z,95304.88
2023-01-13T14:46:22.283Z,95301.97
2023-01-13T14:48:51.225Z,95294.19
2023-01-13T14:51:24.837Z,95306.75
2023-01-13T14:53:53.060Z,95314.81
2023-01-13T14:56:42.621Z,95322.56
2023-01-13T14:59:35.624Z,95326.03
2023-01-13T15:02:35.464Z,95323.59
2023-01-13T15:05:31.568Z,95296.25
2023-01-13T15:08:01.466Z,95348.53
2023-01-13T15:10:31.102Z,95345.16
2023-01-13T15:13:00.398Z,95357.53
2023-01-13T15:15:32.656Z,95362.94
2023-01-13T15:18:02.681Z,95367.56
2023-01-13T15:20:30.109Z,95363.56
2023-01-13T15:22:59.560Z,95339.06
2023-01-13T15:25:32.598Z,95359.81
2023-01-13T15:28:00.202Z,95360.75
2023-01-13T15:30:28.697Z,95369.41
2023-01-13T15:32:58.317Z,95381.88
2023-01-13T15:35:29.528Z,95385.03
2023-01-13T15:37:57.931Z,95384.47
2023-01-13T15:40:30.493Z,95383.34
2023-01-13T15:43:15.469Z,95377.81
2023-01-13T15:45:57.639Z,95376.72
2023-01-13T15:48:26.221Z,95388.97
2023-01-13T15:50:55.198Z,95386.41
2023-01-13T15:53:23.014Z,95395.97
2023-01-13T15:55:54.369Z,95386.41
2023-01-13T15:58:26.600Z,95401.47
2023-01-13T16:00:55.686Z,95397.66
2023-01-13T16:03:23.267Z,95406.53
2023-01-13T16:05:50.788Z,95403.22
2023-01-13T16:08:21.948Z,95389.44
2023-01-13T16:10:50.465Z,95408.53
2023-01-13T16:13:18.440Z,95416.63
2023-01-13T16:15:48.932Z,95434.59
2023-01-13T16:18:18.994Z,95433.72
2023-01-13T16:20:46.901Z,95431.13
2023-01-13T16:23:15.119Z,95457.88
2023-01-13T16:25:46.548Z,95440.69
2023-01-13T16:28:20.666Z,95428.03
2023-01-13T16:30:48.736Z,95437.00
2023-01-13T16:33:16.421Z,95459.56
2023-01-13T16:36:10.901Z,95407.13
2023-01-13T16:38:32.194Z,95458.13
2023-01-13T16:41:07.249Z,95455.66
2023-01-13T16:43:34.939Z,95460.47
2023-01-13T16:46:02.668Z,95451.16
2023-01-13T16:48:30.431Z,95450.81
2023-01-13T16:50:58.230Z,95469.00
2023-01-13T16:53:26.035Z,95453.28
2023-01-13T16:55:53.700Z,95482.03
2023-01-13T16:58:23.343Z,95493.25
2023-01-13T17:00:52.067Z,95490.44
2023-01-13T17:03:19.831Z,95507.41
2023-01-13T17:05:47.824Z,95500.00
2023-01-13T17:08:18.004Z,95492.81
2023-01-13T17:10:46.519Z,95497.88
2023-01-13T17:13:16.702Z,95486.41
2023-01-13T17:15:46.584Z,95478.53
2023-01-13T17:18:14.247Z,95525.28
2023-01-13T17:20:41.877Z,95538.31
2023-01-13T17:23:09.724Z,95537.22
2023-01-13T17:25:37.218Z,95540.25
2023-01-13T17:28:05.025Z,95520.69
2023-01-13T17:30:32.613Z,95535.63
2023-01-13T17:33:01.632Z,95506.53
2023-01-13T17:35:29.183Z,95538.56
2023-01-13T17:37:59.075Z,95552.25
2023-01-13T17:40:26.639Z,95538.44
2023-01-13T17:42:54.293Z,95558.44
2023-01-13T17:45:21.909Z,95482.38
2023-01-13T17:47:49.484Z,95532.03
2023-01-13T17:50:18.803Z,95572.59
2023-01-13T17:52:46.580Z,95592.91
2023-01-13T17:55:14.151Z,95593.25
2023-01-13T17:57:41.650Z,95572.91
2023-01-13T18:00:12.077Z,95592.00
2023-01-13T18:02:39.880Z,95588.50
2023-01-13T18:05:07.755Z,95614.88
2023-01-13T18:07:36.671Z,95608.59
2023-01-13T18:10:06.941Z,95595.50
2023-01-13T18:12:34.902Z,95605.66
2023-01-13T18:15:02.515Z,95624.66
2023-01-13T18:17:30.106Z,95626.34
2023-01-13T18:20:15.130Z,95628.38
2023-01-13T18:23:01.675Z,95634.00
2023-01-13T18:25:46.820Z,95635.44
2023-01-13T18:28:14.395Z,95644.91
2023-01-13T18:30:41.932Z,95648.63
2023-01-13T18:33:09.557Z,95630.94
2023-01-13T18:35:39.319Z,95643.13
2023-01-13T18:38:08.537Z,95637.81
2023-01-13T18:40:36.096Z,95650.75
2023-01-13T18:43:02.789Z,95654.47
2023-01-13T18:45:33.161Z,95621.38
2023-01-13T18:48:05.181Z,95637.69
2023-01-13T18:50:34.517Z,95653.50
2023-01-13T18:53:03.889Z,95662.97
2023-01-13T18:55:32.736Z,95664.75
2023-01-13T18:58:00.528Z,95689.22
2023-01-13T19:00:28.949Z,95682.81
2023-01-13T19:05:34.485Z,95673.28
2023-01-13T19:08:04.573Z,95663.16
2023-01-13T19:10:33.627Z,95682.78
2023-01-13T19:13:02.246Z,95674.25
2023-01-13T19:15:30.126Z,95624.22
2023-01-13T19:17:57.753Z,95690.56
2023-01-13T19:20:25.270Z,95648.66
2023-01-13T19:22:54.274Z,95675.47
2023-01-13T19:25:21.907Z,95630.75
2023-01-13T19:27:52.772Z,95672.22
2023-01-13T19:30:20.559Z,95703.72
2023-01-13T19:32:48.118Z,95678.69
2023-01-13T19:35:17.714Z,95670.81
2023-01-13T19:37:45.595Z,95712.69
2023-01-13T19:40:15.367Z,95720.44
2023-01-13T19:43:01.696Z,95703.59
2023-01-13T19:45:33.714Z,95716.06
2023-01-13T19:48:04.837Z,95684.81
2023-01-13T19:50:35.953Z,95691.81
2023-01-13T19:53:03.593Z,95720.19
2023-01-13T19:55:31.784Z,95738.41
2023-01-13T19:57:59.461Z,95718.31
2023-01-13T20:00:27.026Z,95729.09
2023-01-13T20:03:00.572Z,95725.91
2023-01-13T20:05:29.537Z,95744.75
2023-01-13T20:07:57.170Z,95757.47
2023-01-13T20:10:27.844Z,95759.91
2023-01-13T20:12:55.437Z,95760.25
2023-01-13T20:15:24.191Z,95754.75
2023-01-13T20:17:56.147Z,95699.81
2023-01-13T20:20:23.784Z,95764.97
2023-01-13T20:22:52.828Z,95744.84
2023-01-13T20:25:21.094Z,95720.66
2023-01-13T20:27:49.361Z,95755.69
2023-01-13T20:30:17.107Z,95730.03
2023-01-13T20:32:45.467Z,95744.16
2023-01-13T20:35:14.745Z,95766.41
2023-01-13T20:37:46.762Z,95759.34
2023-01-13T20:40:18.293Z,95743.91
2023-01-13T20:42:45.465Z,95766.38
2023-01-13T20:45:17.853Z,95775.06
2023-01-13T20:47:46.637Z,95771.44
2023-01-13T20:50:17.193Z,95785.06
2023-01-13T20:52:45.491Z,95767.25
2023-01-13T20:55:15.964Z,95795.44
2023-01-13T20:57:43.756Z,95774.16
2023-01-13T21:00:12.467Z,95786.78
2023-01-13T21:02:41.762Z,95737.38
2023-01-13T21:05:09.724Z,95774.44
2023-01-13T21:07:38.863Z,95745.91
2023-01-13T21:10:11.167Z,95720.00
2023-01-13T21:12:56.137Z,95799.69
2023-01-13T21:15:23.964Z,95803.47
2023-01-13T21:18:10.469Z,95806.44
2023-01-13T21:20:41.008Z,95805.22
2023-01-13T21:23:12.784Z,95786.72
2023-01-13T21:25:41.114Z,95817.09
2023-01-13T21:28:13.379Z,95811.19
2023-01-13T21:30:41.277Z,95805.88
2023-01-13T21:33:09.155Z,95802.50
2023-01-13T21:35:40.390Z,95796.56
2023-01-13T21:38:08.187Z,95749.47
2023-01-13T21:40:37.413Z,95795.19
2023-01-13T21:43:27.968Z,95735.03
2023-01-13T21:46:15.644Z,95735.31
2023-01-13T21:48:43.254Z,95786.28
2023-01-13T21:51:12.670Z,95822.97
2023-01-13T21:53:44.027Z,95836.34
2023-01-13T21:56:12.985Z,95845.63
2023-01-13T21:58:40.870Z,95840.22
2023-01-13T22:01:09.834Z,95836.72
2023-01-13T22:03:54.506Z,95847.56
2023-01-13T22:06:22.439Z,95840.31
2023-01-13T22:08:51.235Z,95781.13
2023-01-13T22:11:20.274Z,95862.63
2023-01-13T22:14:08.833Z,95827.31
2023-01-13T22:16:39.293Z,95868.47
2023-01-13T22:19:08.767Z,95864.88
2023-01-13T22:21:37.019Z,95842.94
2023-01-13T22:24:04.581Z,95852.72
2023-01-13T22:26:33.396Z,95855.09
2023-01-13T22:29:02.124Z,95864.88
2023-01-13T22:31:31.413Z,95861.13
2023-01-13T22:33:58.930Z,95872.69
2023-01-13T22:36:26.466Z,95869.31
2023-01-13T22:38:56.061Z,95873.91
2023-01-13T22:41:23.739Z,95879.66
2023-01-13T22:43:52.537Z,95874.69
2023-01-13T22:46:20.073Z,95875.69
2023-01-13T22:48:48.217Z,95891.06
2023-01-13T22:51:18.534Z,95894.22
2023-01-13T22:53:46.213Z,95888.03
2023-01-13T22:56:17.788Z,95884.88
2023-01-13T22:58:45.444Z,95871.38
2023-01-13T23:01:16.655Z,95890.34
2023-01-13T23:03:46.284Z,95886.16
2023-01-13T23:06:13.960Z,95897.16
2023-01-13T23:08:41.407Z,95899.03
2023-01-13T23:11:10.824Z,95907.19
2023-01-13T23:13:39.268Z,95903.09
2023-01-13T23:16:08.996Z,95895.19
2023-01-13T23:18:38.477Z,95905.03
2023-01-13T23:21:08.136Z,95885.69
2023-01-13T23:23:35.837Z,95909.22
2023-01-13T23:26:04.355Z,95912.50
2023-01-13T23:28:34.201Z,95894.47
2023-01-13T23:31:06.177Z,95898.88
2023-01-13T23:33:33.770Z,95912.81
2023-01-13T23:36:04.549Z,95920.28
2023-01-13T23:38:32.661Z,95917.47
2023-01-13T23:41:00.626Z,95926.47
2023-01-13T23:43:28.203Z,95918.97
2023-01-13T23:46:02.532Z,95914.03
2023-01-13T23:48:30.156Z,95927.47
2023-01-13T23:50:58.560Z,95919.28
2023-01-13T23:53:33.132Z,95927.03
2023-01-13T23:56:01.329Z,95926.53
2023-01-13T23:58:30.035Z,95895.03
